Pearcot, Washington
Current Conditions -  °F | °C
As of 3:55 PM on Monday 24 Nov 2014 (Local Time) from KEAT Reporting Station
Scattered Clouds Scattered Clouds  
Wind Chill: 38°   Ceiling: Unl
Heat Index: 42°   Visibility: 10mi
Dew Point: 30°   Wind: 7mph
Humidity: 62%   Direction: 100°E
Pressure: 30.19"   Gusts: NA
Location:  47.3635°N, 120.348°W
Report Text: KEAT 242355Z AUTO 10006KT 10SM SCT120 06/M01 A3019 RMK AO2 SLP230 T00561011 10067 20039 56022
Loading
Personal Weather Stations






























Interactive Weather Map New forecast layout! Learn more

10-Day Weather Forecast

Advertisements
Track Severe Weather on mobile